createdAt,value
2022-09-30T00:01:39.779Z,96.50
2022-09-30T00:04:20.068Z,96.40
2022-09-30T00:06:48.062Z,96.40
2022-09-30T00:09:16.323Z,96.40
2022-09-30T00:11:43.656Z,96.50
2022-09-30T00:14:21.831Z,96.50
2022-09-30T00:16:49.789Z,96.50
2022-09-30T00:19:16.586Z,96.50
2022-09-30T00:21:44.102Z,96.60
2022-09-30T00:24:11.353Z,96.50
2022-09-30T00:26:38.188Z,96.50
2022-09-30T00:29:05.361Z,96.50
2022-09-30T00:31:35.487Z,96.50
2022-09-30T00:34:11.117Z,96.50
2022-09-30T00:36:51.629Z,96.40
2022-09-30T00:39:20.123Z,96.40
2022-09-30T00:41:52.027Z,96.40
2022-09-30T00:44:50.661Z,96.30
2022-09-30T00:47:39.096Z,96.40
2022-09-30T00:50:49.606Z,96.40
2022-09-30T00:53:30.365Z,96.50
2022-09-30T00:56:10.496Z,96.40
2022-09-30T00:59:12.464Z,96.40
2022-09-30T01:01:42.096Z,96.40
2022-09-30T01:04:20.730Z,96.40
2022-09-30T01:06:48.648Z,96.40
2022-09-30T01:09:16.495Z,96.40
2022-09-30T01:11:43.509Z,96.40
2022-09-30T01:14:21.562Z,96.50
2022-09-30T01:17:10.579Z,96.50
2022-09-30T01:20:15.738Z,96.50
2022-09-30T01:23:14.401Z,96.50
2022-09-30T01:26:17.037Z,96.50
2022-09-30T01:29:23.916Z,96.50
2022-09-30T01:32:11.492Z,96.50
2022-09-30T01:34:55.192Z,96.40
2022-09-30T01:37:30.340Z,96.70
2022-09-30T01:40:33.935Z,96.50
2022-09-30T01:43:22.128Z,96.50
2022-09-30T01:46:00.256Z,96.50
2022-09-30T01:48:44.820Z,96.50
2022-09-30T01:51:37.368Z,96.40
2022-09-30T01:54:24.146Z,96.40
2022-09-30T01:57:09.699Z,96.40
2022-09-30T01:59:50.737Z,96.50
2022-09-30T02:02:25.385Z,96.50
2022-09-30T02:05:05.454Z,96.50
2022-09-30T02:07:45.417Z,96.50
2022-09-30T02:10:32.908Z,96.50
2022-09-30T02:13:10.798Z,96.50
2022-09-30T02:15:49.695Z,96.60
2022-09-30T02:18:39.218Z,96.60
2022-09-30T02:21:09.339Z,96.50
2022-09-30T02:23:40.837Z,96.50
2022-09-30T02:26:26.954Z,96.50
2022-09-30T02:29:25.319Z,96.50
2022-09-30T02:32:02.167Z,96.50
2022-09-30T02:34:45.740Z,96.60
2022-09-30T02:37:20.043Z,96.60
2022-09-30T02:39:59.760Z,96.60
2022-09-30T02:42:30.082Z,96.60
2022-09-30T02:45:17.060Z,96.60
2022-09-30T02:48:03.154Z,96.90
2022-09-30T02:50:50.244Z,96.70
2022-09-30T02:53:37.808Z,96.60
2022-09-30T02:56:38.654Z,96.60
2022-09-30T02:59:05.718Z,96.60
2022-09-30T03:01:32.946Z,96.70
2022-09-30T03:04:11.066Z,96.90
2022-09-30T03:06:39.208Z,97.00
2022-09-30T03:09:07.817Z,97.10
2022-09-30T03:11:36.087Z,97.00
2022-09-30T03:14:25.669Z,97.00
2022-09-30T03:17:17.307Z,97.00
2022-09-30T03:20:25.558Z,97.00
2022-09-30T03:23:46.128Z,97.00
2022-09-30T03:26:24.874Z,97.00
2022-09-30T03:29:16.019Z,96.90
2022-09-30T03:32:08.291Z,96.90
2022-09-30T03:35:10.099Z,96.90
2022-09-30T03:38:13.783Z,96.80
2022-09-30T03:40:58.845Z,96.90
2022-09-30T03:43:44.202Z,96.80
2022-09-30T03:46:47.384Z,96.80
2022-09-30T03:49:28.547Z,96.90
2022-09-30T03:51:58.748Z,97.00
2022-09-30T03:54:26.057Z,97.00
2022-09-30T03:56:52.816Z,97.00
2022-09-30T03:59:28.418Z,97.00
2022-09-30T04:02:01.356Z,97.00
2022-09-30T04:04:28.259Z,97.00
2022-09-30T04:06:55.083Z,97.00
2022-09-30T04:09:22.025Z,97.00
2022-09-30T04:11:49.103Z,97.00
2022-09-30T04:14:15.945Z,97.00
2022-09-30T04:16:43.110Z,97.10
2022-09-30T04:19:10.073Z,97.10
2022-09-30T04:21:36.837Z,97.00
2022-09-30T04:24:03.943Z,97.00
2022-09-30T04:26:30.710Z,97.10
2022-09-30T04:28:58.672Z,97.10
2022-09-30T04:31:25.905Z,97.10
2022-09-30T04:33:52.750Z,97.10
2022-09-30T04:36:19.585Z,97.10
2022-09-30T04:38:46.405Z,97.00
2022-09-30T04:41:17.227Z,97.10
2022-09-30T04:43:46.825Z,97.30
2022-09-30T04:46:19.477Z,97.40
2022-09-30T04:48:47.540Z,97.50
2022-09-30T04:51:21.723Z,97.80
2022-09-30T04:53:48.977Z,97.80
2022-09-30T04:56:19.364Z,97.90
2022-09-30T04:58:46.711Z,98.00
2022-09-30T05:01:16.970Z,98.00
2022-09-30T05:03:44.743Z,98.10
2022-09-30T05:06:14.108Z,98.10
2022-09-30T05:08:45.930Z,98.10
2022-09-30T05:11:20.528Z,98.10
2022-09-30T05:13:48.837Z,97.90
2022-09-30T05:16:17.238Z,97.90
2022-09-30T05:18:46.312Z,97.90
2022-09-30T05:21:20.426Z,97.90
2022-09-30T05:23:47.891Z,97.90
2022-09-30T05:26:14.861Z,97.80
2022-09-30T05:28:42.608Z,97.80
2022-09-30T05:31:10.034Z,97.90
2022-09-30T05:33:36.951Z,97.80
2022-09-30T05:36:07.780Z,97.90
2022-09-30T05:38:35.803Z,98.00
2022-09-30T05:41:13.461Z,98.20
2022-09-30T05:43:42.701Z,98.10
2022-09-30T05:46:09.515Z,98.30
2022-09-30T05:48:36.562Z,98.10
2022-09-30T05:51:03.526Z,98.10
2022-09-30T05:53:34.466Z,98.10
2022-09-30T05:56:01.658Z,98.10
2022-09-30T05:58:29.293Z,98.10
2022-09-30T06:00:56.224Z,98.20
2022-09-30T06:03:23.361Z,98.20
2022-09-30T06:05:57.665Z,98.30
2022-09-30T06:08:24.605Z,98.30
2022-09-30T06:10:51.557Z,98.40
2022-09-30T06:13:19.251Z,98.40
2022-09-30T06:15:57.068Z,98.40
2022-09-30T06:18:25.447Z,98.40
2022-09-30T06:20:55.595Z,98.40
2022-09-30T06:23:22.435Z,98.20
2022-09-30T06:25:53.893Z,98.30
2022-09-30T06:28:22.362Z,98.40
2022-09-30T06:30:49.509Z,98.40
2022-09-30T06:33:17.437Z,98.40
2022-09-30T06:35:47.213Z,98.30
2022-09-30T06:38:15.786Z,98.40
2022-09-30T06:40:50.024Z,98.80
2022-09-30T06:43:17.998Z,98.80
2022-09-30T06:45:48.680Z,99.20
2022-09-30T06:48:20.516Z,99.40
2022-09-30T06:51:01.228Z,99.60
2022-09-30T06:53:29.624Z,99.60
2022-09-30T06:55:58.375Z,99.60
2022-09-30T06:58:25.581Z,99.90
2022-09-30T07:01:04.833Z,99.90
2022-09-30T07:03:35.762Z,99.90
2022-09-30T07:06:05.604Z,99.90
2022-09-30T07:08:36.269Z,99.90
2022-09-30T07:11:12.546Z,99.90
2022-09-30T07:13:39.631Z,99.90
2022-09-30T07:16:07.011Z,99.90
2022-09-30T07:18:33.964Z,99.70
2022-09-30T07:21:00.867Z,99.60
2022-09-30T07:23:27.707Z,99.20
2022-09-30T07:26:00.282Z,99.00
2022-09-30T07:28:35.178Z,98.60
2022-09-30T07:31:31.950Z,98.30
2022-09-30T07:33:58.709Z,97.50
2022-09-30T07:36:33.907Z,97.30
2022-09-30T07:39:07.444Z,95.90
2022-09-30T07:41:39.052Z,96.30
2022-09-30T07:44:13.201Z,95.40
2022-09-30T07:46:41.377Z,95.10
2022-09-30T07:49:14.858Z,95.10
2022-09-30T07:51:45.968Z,94.70
2022-09-30T07:54:16.965Z,94.40
2022-09-30T07:57:09.274Z,93.90
2022-09-30T07:59:37.228Z,93.80
2022-09-30T08:02:06.735Z,93.80
2022-09-30T08:04:35.062Z,93.80
2022-09-30T08:07:03.300Z,93.40
2022-09-30T08:09:31.578Z,93.10
2022-09-30T08:11:59.195Z,92.90
2022-09-30T08:14:28.039Z,92.80
2022-09-30T08:17:00.184Z,92.80
2022-09-30T08:19:30.347Z,92.00
2022-09-30T08:21:57.982Z,91.10
2022-09-30T08:24:27.057Z,91.30
2022-09-30T08:26:55.076Z,91.30
2022-09-30T08:29:49.848Z,91.10
2022-09-30T08:32:09.148Z,90.80
2022-09-30T08:34:36.195Z,90.50
2022-09-30T08:37:08.691Z,90.50
2022-09-30T08:39:37.452Z,90.40
2022-09-30T08:42:36.542Z,90.20
2022-09-30T08:45:39.883Z,90.00
2022-09-30T08:48:44.432Z,88.40
2022-09-30T08:51:45.459Z,87.80
2022-09-30T08:54:18.061Z,87.90
2022-09-30T08:56:46.530Z,88.50
2022-09-30T08:59:28.347Z,86.90
2022-09-30T09:02:24.002Z,88.20
2022-09-30T09:04:52.610Z,87.20
2022-09-30T09:07:32.822Z,88.10
2022-09-30T09:10:28.535Z,86.00
2022-09-30T09:13:17.409Z,86.40
2022-09-30T09:16:02.370Z,85.50
2022-09-30T09:18:49.001Z,85.50
2022-09-30T09:21:32.067Z,84.60
2022-09-30T09:24:03.576Z,83.30
2022-09-30T09:26:36.580Z,82.40
2022-09-30T09:29:41.986Z,82.40
2022-09-30T09:32:18.011Z,83.20
2022-09-30T09:34:52.718Z,81.70
2022-09-30T09:38:09.390Z,80.80
2022-09-30T09:40:59.388Z,82.50
2022-09-30T09:44:02.244Z,79.50
2022-09-30T09:46:45.640Z,80.20
2022-09-30T09:49:20.610Z,78.90
2022-09-30T09:51:59.708Z,78.90
2022-09-30T09:54:31.154Z,79.50
2022-09-30T09:57:10.761Z,78.70
2022-09-30T09:59:58.301Z,78.20
2022-09-30T10:02:31.934Z,77.70
2022-09-30T10:05:03.676Z,78.10
2022-09-30T10:07:34.449Z,78.90
2022-09-30T10:10:24.142Z,76.80
2022-09-30T10:12:51.411Z,77.10
2022-09-30T10:15:23.336Z,75.80
2022-09-30T10:17:56.761Z,76.00
2022-09-30T10:20:54.226Z,76.20
2022-09-30T10:23:36.002Z,75.40
2022-09-30T10:26:20.224Z,75.50
2022-09-30T10:29:02.057Z,75.90
2022-09-30T10:31:48.219Z,74.20
2022-09-30T10:34:42.239Z,74.60
2022-09-30T10:37:20.229Z,75.80
2022-09-30T10:40:06.561Z,76.10
2022-09-30T10:42:41.448Z,73.50
2022-09-30T10:45:37.030Z,73.10
2022-09-30T10:51:01.859Z,70.90
2022-09-30T10:53:33.939Z,71.50
2022-09-30T10:56:02.985Z,71.50
2022-09-30T11:01:46.981Z,70.00
2022-09-30T11:04:29.101Z,69.40
2022-09-30T11:07:23.572Z,68.80
2022-09-30T11:10:31.594Z,70.30
2022-09-30T11:13:23.413Z,71.10
2022-09-30T11:16:08.864Z,67.70
2022-09-30T11:19:13.884Z,67.00
2022-09-30T11:21:53.012Z,67.90
2022-09-30T11:24:39.756Z,69.90
2022-09-30T11:27:24.159Z,73.50
2022-09-30T11:30:16.481Z,69.80
2022-09-30T11:33:04.994Z,71.20
2022-09-30T11:36:08.767Z,69.20
2022-09-30T11:39:17.999Z,69.60
2022-09-30T11:42:11.934Z,71.40
2022-09-30T11:44:48.405Z,69.90
2022-09-30T11:47:47.020Z,68.20
2022-09-30T11:51:00.370Z,67.80
2022-09-30T11:53:46.683Z,67.20
2022-09-30T11:56:43.093Z,67.00
2022-09-30T11:59:47.538Z,66.90
2022-09-30T12:02:55.927Z,66.40
2022-09-30T12:05:43.544Z,64.50
2022-09-30T12:08:32.009Z,64.00
2022-09-30T12:11:40.033Z,66.40
2022-09-30T12:14:49.187Z,65.00
2022-09-30T12:17:39.524Z,64.70
2022-09-30T12:20:41.559Z,64.60
2022-09-30T12:23:39.642Z,66.40
2022-09-30T12:26:19.444Z,65.20
2022-09-30T12:29:19.134Z,63.40
2022-09-30T12:32:09.470Z,63.50
2022-09-30T12:35:08.878Z,64.40
2022-09-30T12:37:50.613Z,62.80
2022-09-30T12:41:02.555Z,62.00
2022-09-30T12:44:35.575Z,62.60
2022-09-30T12:47:46.146Z,60.30
2022-09-30T12:50:18.929Z,61.40
2022-09-30T12:52:46.367Z,62.60
2022-09-30T12:55:31.215Z,63.20
2022-09-30T12:58:02.262Z,64.50
2022-09-30T13:00:34.707Z,64.70
2022-09-30T13:03:17.212Z,64.70
2022-09-30T13:06:00.134Z,62.00
2022-09-30T13:08:47.854Z,60.90
2022-09-30T13:11:45.461Z,60.70
2022-09-30T13:14:26.015Z,60.10
2022-09-30T13:17:03.055Z,59.50
2022-09-30T13:19:47.442Z,59.10
2022-09-30T13:22:29.392Z,60.90
2022-09-30T13:25:12.083Z,62.70
2022-09-30T13:27:48.656Z,63.50
2022-09-30T13:30:38.525Z,64.20
2022-09-30T13:33:29.362Z,62.70
2022-09-30T13:36:06.458Z,62.90
2022-09-30T13:38:48.100Z,61.80
2022-09-30T13:44:16.685Z,61.10
2022-09-30T13:47:09.785Z,60.50
2022-09-30T13:49:47.924Z,59.30
2022-09-30T13:52:31.421Z,60.30
2022-09-30T13:55:07.005Z,60.10
2022-09-30T13:58:22.493Z,61.40
2022-09-30T14:01:02.914Z,60.70
2022-09-30T14:03:46.874Z,59.70
2022-09-30T14:06:34.388Z,59.80
2022-09-30T14:09:47.166Z,59.20
2022-09-30T14:12:51.750Z,58.70
2022-09-30T14:15:57.197Z,57.80
2022-09-30T14:19:01.863Z,58.90
2022-09-30T14:21:48.157Z,59.10
2022-09-30T14:24:26.977Z,58.20
2022-09-30T14:27:09.133Z,59.30
2022-09-30T14:29:51.106Z,59.20
2022-09-30T14:32:26.564Z,59.30
2022-09-30T14:34:57.047Z,59.20
2022-09-30T14:37:36.853Z,59.30
2022-09-30T14:40:15.612Z,59.50
2022-09-30T14:42:45.559Z,60.30
2022-09-30T14:45:29.427Z,59.80
2022-09-30T14:48:07.117Z,60.40
2022-09-30T14:51:11.173Z,61.00
2022-09-30T14:54:03.051Z,60.60
2022-09-30T14:56:40.835Z,58.10
2022-09-30T14:59:26.976Z,57.90
2022-09-30T15:02:18.344Z,57.30
2022-09-30T15:05:01.109Z,57.60
2022-09-30T15:07:30.789Z,57.20
2022-09-30T15:10:17.902Z,57.40
2022-09-30T15:12:45.242Z,58.50
2022-09-30T15:15:49.413Z,59.20
2022-09-30T15:18:35.503Z,59.00
2022-09-30T15:26:04.147Z,60.00
2022-09-30T15:28:31.788Z,59.20
2022-09-30T15:30:59.077Z,60.20
2022-09-30T15:33:31.716Z,59.90
2022-09-30T15:36:17.261Z,59.50
2022-09-30T15:38:51.779Z,59.20
2022-09-30T15:41:19.237Z,60.00
2022-09-30T15:43:52.908Z,60.40
2022-09-30T15:46:27.666Z,60.80
2022-09-30T15:49:32.210Z,61.20
2022-09-30T15:52:40.006Z,62.00
2022-09-30T15:55:43.574Z,61.90
2022-09-30T15:58:39.003Z,62.50
2022-09-30T16:01:21.550Z,63.50
2022-09-30T16:04:03.206Z,64.10
2022-09-30T16:06:38.445Z,64.20
2022-09-30T16:09:20.740Z,64.70
2022-09-30T16:12:11.714Z,65.40
2022-09-30T16:14:54.213Z,65.40
2022-09-30T16:17:35.915Z,66.20
2022-09-30T16:20:09.270Z,66.60
2022-09-30T16:22:42.455Z,67.00
2022-09-30T16:25:28.302Z,66.50
2022-09-30T16:28:11.459Z,66.90
2022-09-30T16:30:47.758Z,67.20
2022-09-30T16:33:19.718Z,67.70
2022-09-30T16:35:50.035Z,68.00
2022-09-30T16:38:18.826Z,68.40
2022-09-30T16:40:46.064Z,69.10
2022-09-30T16:43:12.992Z,69.50
2022-09-30T16:45:40.982Z,69.40
2022-09-30T16:48:18.999Z,69.60
2022-09-30T16:51:14.473Z,70.00
2022-09-30T16:53:41.706Z,70.50
2022-09-30T16:56:19.226Z,70.70
2022-09-30T16:58:47.189Z,71.10
2022-09-30T17:01:20.950Z,71.60
2022-09-30T17:03:49.337Z,71.90
2022-09-30T17:06:18.932Z,72.40
2022-09-30T17:08:48.808Z,72.40
2022-09-30T17:11:15.645Z,72.60
2022-09-30T17:13:42.550Z,73.20
2022-09-30T17:16:09.436Z,73.50
2022-09-30T17:18:36.357Z,73.40
2022-09-30T17:21:03.667Z,73.60
2022-09-30T17:23:30.580Z,73.60
2022-09-30T17:25:58.009Z,73.70
2022-09-30T17:28:25.146Z,73.90
2022-09-30T17:30:51.994Z,74.00
2022-09-30T17:33:19.864Z,74.30
2022-09-30T17:36:02.605Z,74.70
2022-09-30T17:38:29.755Z,74.80
2022-09-30T17:41:15.211Z,74.90
2022-09-30T17:43:42.254Z,75.10
2022-09-30T17:46:09.515Z,75.30
2022-09-30T17:48:38.045Z,75.60
2022-09-30T17:51:06.000Z,75.50
2022-09-30T17:53:32.884Z,75.70
2022-09-30T17:56:16.720Z,75.90
2022-09-30T17:58:47.337Z,76.00
2022-09-30T18:01:16.449Z,76.40
2022-09-30T18:03:44.994Z,76.60
2022-09-30T18:06:14.321Z,76.80
2022-09-30T18:08:41.506Z,77.30
2022-09-30T18:11:08.484Z,77.60
2022-09-30T18:13:35.749Z,77.90
2022-09-30T18:16:06.912Z,78.20
2022-09-30T18:18:35.272Z,78.50
2022-09-30T18:21:02.372Z,78.80
2022-09-30T18:23:29.263Z,78.90
2022-09-30T18:25:58.341Z,79.10
2022-09-30T18:28:25.449Z,79.10
2022-09-30T18:30:52.298Z,79.20
2022-09-30T18:33:21.553Z,79.20
2022-09-30T18:35:49.180Z,79.40
2022-09-30T18:38:16.228Z,79.50
2022-09-30T18:40:46.445Z,79.70
2022-09-30T18:43:14.427Z,79.80
2022-09-30T18:45:43.538Z,80.00
2022-09-30T18:48:10.983Z,80.10
2022-09-30T18:50:38.612Z,80.10
2022-09-30T18:53:09.852Z,80.10
2022-09-30T18:55:43.727Z,80.10
2022-09-30T18:58:10.533Z,80.20
2022-09-30T19:00:37.758Z,80.30
2022-09-30T19:03:04.820Z,80.30
2022-09-30T19:05:31.632Z,80.30
2022-09-30T19:07:59.254Z,80.30
2022-09-30T19:10:26.255Z,80.40
2022-09-30T19:12:53.164Z,80.40
2022-09-30T19:15:20.032Z,80.60
2022-09-30T19:17:50.066Z,80.60
2022-09-30T19:20:17.655Z,80.80
2022-09-30T19:22:45.561Z,81.10
2022-09-30T19:25:12.866Z,81.30
2022-09-30T19:27:42.557Z,81.50
2022-09-30T19:30:13.332Z,81.60
2022-09-30T19:32:40.584Z,82.00
2022-09-30T19:35:11.597Z,82.10
2022-09-30T19:37:42.827Z,82.40
2022-09-30T19:40:20.906Z,82.70
2022-09-30T19:42:49.491Z,83.00
2022-09-30T19:45:17.513Z,83.10
2022-09-30T19:47:45.741Z,83.30
2022-09-30T19:50:12.554Z,83.40
2022-09-30T19:52:50.086Z,83.60
2022-09-30T19:55:21.759Z,83.70
2022-09-30T19:57:48.601Z,83.70
2022-09-30T20:00:15.559Z,83.70
2022-09-30T20:02:42.440Z,83.90
2022-09-30T20:05:09.730Z,83.70
2022-09-30T20:07:36.540Z,83.80
2022-09-30T20:10:03.879Z,83.90
2022-09-30T20:12:30.688Z,83.90
2022-09-30T20:15:16.436Z,83.90
2022-09-30T20:17:43.285Z,83.70
2022-09-30T20:20:28.877Z,83.50
2022-09-30T20:22:56.801Z,83.40
2022-09-30T20:25:23.595Z,83.30
2022-09-30T20:27:52.613Z,83.30
2022-09-30T20:30:20.549Z,83.20
2022-09-30T20:32:47.413Z,83.20
2022-09-30T20:35:14.333Z,83.00
2022-09-30T20:37:42.657Z,83.00
2022-09-30T20:40:09.857Z,82.90
2022-09-30T20:42:38.217Z,82.90
2022-09-30T20:45:10.028Z,82.90
2022-09-30T20:47:45.484Z,82.70
2022-09-30T20:50:13.046Z,82.70
2022-09-30T20:52:39.908Z,82.70
2022-09-30T20:55:07.972Z,82.90
2022-09-30T20:57:34.947Z,83.10
2022-09-30T21:00:02.143Z,83.20
2022-09-30T21:02:29.549Z,83.30
2022-09-30T21:04:57.790Z,83.30
2022-09-30T21:07:26.278Z,83.40
2022-09-30T21:09:53.111Z,83.50
2022-09-30T21:12:20.033Z,83.50
2022-09-30T21:14:46.920Z,83.60
2022-09-30T21:17:13.749Z,83.60
2022-09-30T21:19:40.583Z,83.60
2022-09-30T21:22:07.507Z,83.60
2022-09-30T21:24:34.358Z,83.90
2022-09-30T21:27:01.549Z,83.90
2022-09-30T21:29:30.496Z,83.80
2022-09-30T21:31:57.596Z,83.90
2022-09-30T21:34:24.839Z,83.90
2022-09-30T21:36:51.689Z,84.10
2022-09-30T21:39:18.571Z,84.10
2022-09-30T21:41:46.067Z,84.20
2022-09-30T21:44:13.964Z,84.40
2022-09-30T21:46:44.706Z,84.50
2022-09-30T21:49:23.697Z,84.50
2022-09-30T21:51:53.272Z,84.60
2022-09-30T21:54:20.757Z,84.70
2022-09-30T21:56:48.420Z,84.90
2022-09-30T21:59:15.588Z,85.00
2022-09-30T22:01:42.602Z,85.00
2022-09-30T22:04:09.599Z,84.90
2022-09-30T22:06:36.498Z,85.00
2022-09-30T22:09:03.864Z,84.90
2022-09-30T22:11:32.360Z,85.00
2022-09-30T22:14:00.327Z,85.10
2022-09-30T22:16:31.962Z,85.10
2022-09-30T22:19:03.538Z,85.10
2022-09-30T22:21:34.572Z,85.10
2022-09-30T22:24:04.602Z,85.30
2022-09-30T22:26:32.850Z,85.50
2022-09-30T22:29:04.751Z,85.60
2022-09-30T22:31:33.996Z,85.70
2022-09-30T22:34:23.727Z,85.80
2022-09-30T22:37:09.717Z,85.90
2022-09-30T22:39:36.533Z,86.10
2022-09-30T22:42:03.943Z,86.30
2022-09-30T22:44:36.994Z,86.50
2022-09-30T22:47:07.876Z,86.50
2022-09-30T22:49:34.954Z,86.60
2022-09-30T22:52:03.557Z,86.80
2022-09-30T22:54:30.694Z,86.70
2022-09-30T22:56:59.253Z,86.90
2022-09-30T22:59:28.169Z,86.80
2022-09-30T23:01:57.077Z,87.00
2022-09-30T23:04:26.772Z,87.10
2022-09-30T23:06:55.529Z,87.20
2022-09-30T23:09:22.788Z,87.10
2022-09-30T23:11:54.086Z,87.20
2022-09-30T23:14:22.518Z,87.30
2022-09-30T23:16:50.235Z,87.20
2022-09-30T23:19:17.909Z,87.30
2022-09-30T23:21:44.788Z,87.40
2022-09-30T23:24:12.159Z,87.40
2022-09-30T23:26:39.683Z,87.40
2022-09-30T23:29:11.699Z,87.50
2022-09-30T23:32:21.708Z,87.60
2022-09-30T23:34:48.722Z,87.60
2022-09-30T23:37:15.933Z,87.50
2022-09-30T23:39:42.798Z,87.50
2022-09-30T23:42:09.594Z,87.60
2022-09-30T23:44:36.420Z,87.50
2022-09-30T23:47:18.181Z,87.40
2022-09-30T23:49:45.957Z,87.60
2022-09-30T23:52:13.824Z,87.50
2022-09-30T23:54:42.186Z,87.70
2022-09-30T23:57:10.558Z,88.10
2022-09-30T23:59:38.502Z,88.50
